Crumpsall, United Kingdom
Current Conditions -  °F | °C
As of 9:50 PM on Wednesday 28 Jan 2015 (Local Time) from EGCC Reporting Station
Snow Showers Snow Showers  
Wind Chill: 25°   Ceiling: 3200
Heat Index: 36°   Visibility: 6mi
Dew Point: 32°   Wind: 18mph
Humidity: 87%   Direction: 230°SW
Pressure: 29.32"   Gusts: NA
Location:  53.52°N, 2.24°W
Report Text: EGCC 282150Z 23016KT 9000 -SHRASN SCT020CB BKN032 02/M00 Q0993
Loading
Personal Weather Stations






























Interactive Weather Map New forecast layout! Learn more

10-Day Weather Forecast

Advertisements
Track Severe Weather on mobile